Time;durP1;ratioP1;P1;durP2;ratioP2;P2;SDS_P1;SDS_P2;PMS_P1;PMS_P2;Temp;Humidity;BMP_temperature;BMP_pressure;BME280_temperature;BME280_humidity;BME280_pressure;Samples;Min_cycle;Max_cycle;Signal;HPM_P1;HPM_P2
2022/11/05 00:09:28;;;;;;;447.87;266.93;;;;;;;11.02;82.90;99324.00;314531;31;1246;-82
2022/11/05 00:09:29;;;;;;;444.38;267.75;;;;;;;10.98;84.23;99318.06;293919;33;1071;-83
2022/11/05 00:09:40;;;;;;;449.13;271.02;;;;;;;11.00;84.01;99316.22;289126;33;4404;-83
2022/11/05 00:10:05;;;;;;;449.03;272.17;;;;;;;11.01;84.21;99311.81;287786;33;4215;-83
2022/11/05 00:10:23;;;;;;;451.80;278.33;;;;;;;11.04;84.04;99313.47;287661;34;1320;-83
2022/11/05 00:10:34;;;;;;;447.48;274.73;;;;;;;11.04;84.16;99321.31;284887;34;1332;-83
2022/11/05 00:10:45;;;;;;;445.98;272.13;;;;;;;11.05;84.25;99317.78;284942;34;1544;-83
2022/11/05 00:10:55;;;;;;;443.83;270.45;;;;;;;11.04;84.43;99314.31;284728;34;4321;-83
2022/11/05 00:11:05;;;;;;;445.77;273.37;;;;;;;11.05;84.26;99312.53;285209;34;5275;-83
2022/11/05 00:11:16;;;;;;;445.58;273.67;;;;;;;11.04;83.99;99319.53;282565;35;1404;-83
2022/11/05 00:16:44;;;;;;;442.17;269.00;;;;;;;10.96;84.14;99314.66;349784;28;831;-82
2022/11/05 00:16:54;;;;;;;441.37;273.33;;;;;;;10.98;84.00;99314.59;351831;28;1253;-82
2022/11/05 00:17:05;;;;;;;443.08;276.92;;;;;;;10.97;84.01;99311.13;347640;28;1284;-82
2022/11/05 00:17:15;;;;;;;447.73;277.40;;;;;;;10.97;83.96;99316.34;346389;28;1201;-82
2022/11/05 00:17:26;;;;;;;451.77;278.90;;;;;;;10.97;83.94;99316.34;347014;28;1253;-82
2022/11/05 00:17:36;;;;;;;454.25;275.35;;;;;;;10.97;83.98;99311.13;349397;28;1038;-82
2022/11/05 00:17:47;;;;;;;452.83;279.47;;;;;;;10.98;83.90;99311.97;348923;28;1174;-82
2022/11/05 00:17:58;;;;;;;451.20;279.38;;;;;;;10.97;83.90;99316.34;349895;28;1214;-82
2022/11/05 00:18:09;;;;;;;449.06;282.72;;;;;;;10.96;84.25;99316.44;350526;28;1383;-82
2022/11/05 00:18:19;;;;;;;452.97;277.33;;;;;;;10.96;84.44;99314.66;350091;28;1171;-82
2022/11/05 00:18:29;;;;;;;451.13;272.83;;;;;;;10.94;84.25;99316.50;347181;28;1205;-82
2022/11/05 00:18:40;;;;;;;452.42;273.58;;;;;;;10.95;84.49;99323.44;349270;28;3634;-82
2022/11/05 00:19:05;;;;;;;445.30;274.07;;;;;;;10.94;84.26;99321.75;351196;28;2397;-82
2022/11/05 00:19:16;;;;;;;449.40;274.92;;;;;;;10.94;84.53;99321.75;344644;28;3039;-82
2022/11/05 00:19:26;;;;;;;449.43;278.30;;;;;;;10.92;84.27;99320.97;342829;28;1296;-82
2022/11/05 00:19:36;;;;;;;450.27;275.02;;;;;;;10.92;84.17;99315.72;344149;28;1207;-82
2022/11/05 00:19:47;;;;;;;449.80;272.40;;;;;;;10.91;84.27;99321.88;345007;28;1268;-82
2022/11/05 00:19:57;;;;;;;448.27;268.23;;;;;;;10.92;84.16;99318.34;344672;28;908;-82
2022/11/05 00:20:08;;;;;;;442.77;270.53;;;;;;;10.92;84.44;99317.50;342001;29;1195;-82
2022/11/05 00:20:19;;;;;;;447.68;275.24;;;;;;;10.93;84.41;99324.44;341915;29;903;-81
2022/11/05 00:20:29;;;;;;;447.30;278.53;;;;;;;10.94;84.20;99321.75;340832;29;1418;-81
2022/11/05 00:20:40;;;;;;;445.57;276.60;;;;;;;10.93;84.03;99314.81;343452;28;1219;-81
2022/11/05 00:20:50;;;;;;;445.67;279.98;;;;;;;10.92;84.12;99320.97;344619;28;1157;-81
2022/11/05 00:21:00;;;;;;;448.00;278.40;;;;;;;10.93;84.46;99317.41;347335;28;1240;-82
2022/11/05 00:25:12;;;;;;;442.40;271.30;;;;;;;11.02;83.59;99316.16;325109;30;761;-82
2022/11/05 00:25:23;;;;;;;450.70;276.27;;;;;;;11.00;83.48;99313.59;327528;30;1723;-82
2022/11/05 00:25:33;;;;;;;453.40;276.08;;;;;;;10.99;83.67;99306.66;327136;30;1239;-82
2022/11/05 00:26:01;;;;;;;453.60;272.73;;;;;;;11.00;83.73;99315.38;328818;30;2121;-82
2022/11/05 00:26:12;;;;;;;445.50;269.58;;;;;;;11.00;83.56;99316.22;329348;30;2197;-82
2022/11/05 00:26:22;;;;;;;447.55;272.70;;;;;;;11.00;83.55;99310.97;325728;30;1699;-82
2022/11/05 00:26:33;;;;;;;455.65;275.90;;;;;;;11.00;83.61;99305.75;323424;30;1243;-82
2022/11/05 00:26:43;;;;;;;454.77;275.70;;;;;;;10.99;83.60;99314.53;326301;30;983;-82
2022/11/05 00:26:54;;;;;;;453.63;276.52;;;;;;;10.98;83.67;99312.81;324127;30;1325;-82
2022/11/05 00:27:04;;;;;;;448.80;278.50;;;;;;;10.97;83.42;99316.34;324021;30;1202;-82
2022/11/05 00:27:14;;;;;;;447.70;275.13;;;;;;;10.99;83.54;99309.28;322685;30;1835;-82
2022/11/05 00:27:25;;;;;;;451.20;277.57;;;;;;;10.97;83.58;99316.34;320155;30;2276;-82
2022/11/05 00:27:35;;;;;;;450.57;275.80;;;;;;;10.97;83.52;99318.97;319202;31;889;-82
2022/11/05 00:27:49;;;;;;;451.17;279.45;;;;;;;10.98;83.67;99307.59;321083;30;2601;-82
2022/11/05 00:28:01;;;;;;;450.60;276.80;;;;;;;10.98;83.51;99312.81;322923;30;2883;-82
2022/11/05 00:28:11;;;;;;;454.85;279.40;;;;;;;10.99;83.66;99318.91;324297;30;2516;-82
2022/11/05 00:28:21;;;;;;;458.67;279.27;;;;;;;11.00;83.89;99320.59;322250;30;2704;-82
2022/11/05 00:28:32;;;;;;;456.27;280.33;;;;;;;10.97;83.72;99313.75;319160;30;3411;-82
2022/11/05 00:28:43;;;;;;;453.15;275.40;;;;;;;10.96;83.86;99314.66;322830;30;1860;-82
2022/11/05 00:28:53;;;;;;;452.50;278.98;;;;;;;10.94;83.86;99313.88;322700;30;1331;-82
2022/11/05 00:29:04;;;;;;;453.13;279.63;;;;;;;10.93;83.83;99316.56;319811;30;1309;-82
2022/11/05 00:29:14;;;;;;;448.98;281.25;;;;;;;10.92;84.02;99323.56;320882;30;1907;-82
2022/11/05 00:29:25;;;;;;;450.43;277.07;;;;;;;10.93;83.99;99314.81;320618;30;2625;-82
2022/11/05 00:29:35;;;;;;;449.55;276.83;;;;;;;10.94;83.76;99316.50;316757;31;1310;-82
2022/11/05 00:29:45;;;;;;;447.43;275.63;;;;;;;10.94;84.07;99308.66;319606;30;3018;-82
2022/11/05 00:29:56;;;;;;;447.05;277.42;;;;;;;10.93;84.06;99314.81;319915;30;3101;-82
2022/11/05 00:30:08;;;;;;;447.33;278.47;;;;;;;10.93;83.81;99312.19;320689;30;3173;-82
2022/11/05 00:30:20;;;;;;;451.00;280.00;;;;;;;10.94;83.90;99321.75;314445;31;1455;-82
2022/11/05 00:30:30;;;;;;;447.67;280.48;;;;;;;10.93;83.88;99317.41;316197;31;3149;-82
2022/11/05 00:30:41;;;;;;;446.77;274.20;;;;;;;10.94;83.85;99320.88;314308;31;3238;-82
2022/11/05 00:30:51;;;;;;;444.27;272.17;;;;;;;10.92;83.93;99318.34;310506;31;2638;-82
2022/11/05 00:31:04;;;;;;;451.10;277.83;;;;;;;10.92;83.79;99313.09;306533;32;1251;-82
2022/11/05 00:31:14;;;;;;;452.94;285.78;;;;;;;10.93;83.74;99320.03;306723;32;2121;-82
2022/11/05 00:31:25;;;;;;;450.00;283.37;;;;;;;10.94;83.45;99311.25;306319;31;2706;-82
2022/11/05 00:31:35;;;;;;;450.10;281.35;;;;;;;10.94;83.60;99316.50;308677;32;1364;-82
2022/11/05 00:31:46;;;;;;;451.27;276.13;;;;;;;10.92;83.55;99315.72;309018;31;3959;-82
2022/11/05 00:31:56;;;;;;;455.27;280.48;;;;;;;10.93;83.75;99309.56;304895;32;4730;-82
2022/11/05 00:32:06;;;;;;;456.33;278.43;;;;;;;10.94;83.49;99315.66;301498;32;4004;-83
2022/11/05 00:32:17;;;;;;;455.30;280.63;;;;;;;10.93;83.95;99317.41;299635;33;1284;-82
2022/11/05 00:32:27;;;;;;;455.90;281.55;;;;;;;10.95;83.59;99312.97;301267;32;4598;-82
2022/11/05 00:32:38;;;;;;;454.20;278.80;;;;;;;10.94;83.59;99313.88;298431;33;4180;-82
2022/11/05 00:32:49;;;;;;;451.42;277.73;;;;;;;10.95;83.41;99309.50;295187;33;1374;-82
2022/11/05 00:33:01;;;;;;;448.05;276.98;;;;;;;10.91;83.59;99311.41;297353;33;4683;-82
2022/11/05 00:33:11;;;;;;;446.58;278.98;;;;;;;10.92;83.60;99310.50;295773;33;3662;-82
2022/11/05 00:33:22;;;;;;;447.75;281.05;;;;;;;10.92;83.69;99314.88;296452;33;3256;-82
2022/11/05 00:33:32;;;;;;;449.20;286.23;;;;;;;10.92;83.57;99313.09;291350;33;1231;-82
2022/11/05 00:33:43;;;;;;;452.52;287.90;;;;;;;10.92;83.52;99313.09;288561;33;4153;-82
2022/11/05 00:33:53;;;;;;;454.60;285.07;;;;;;;10.93;83.29;99309.56;285400;33;5361;-82
2022/11/05 00:34:03;;;;;;;453.05;280.33;;;;;;;10.91;83.56;99311.41;286546;34;1932;-82
2022/11/05 00:34:14;;;;;;;453.47;284.87;;;;;;;10.92;83.25;99307.88;287239;34;6166;-82
2022/11/05 00:34:24;;;;;;;450.30;285.87;;;;;;;10.94;83.51;99313.88;286032;34;6377;-82
2022/11/05 00:34:34;;;;;;;448.58;285.27;;;;;;;10.92;83.33;99302.63;288590;34;825;-82
2022/11/05 00:34:45;;;;;;;449.27;280.63;;;;;;;10.92;83.43;99302.63;287551;34;6299;-82
2022/11/05 00:34:55;;;;;;;452.45;276.40;;;;;;;10.91;83.63;99306.19;283906;34;5583;-82
2022/11/05 00:35:06;;;;;;;454.47;275.37;;;;;;;10.93;83.64;99308.72;283596;35;795;-82
2022/11/05 00:35:18;;;;;;;455.10;280.98;;;;;;;10.93;83.79;99309.56;278240;35;815;-82
2022/11/05 00:35:28;;;;;;;455.02;285.13;;;;;;;10.92;83.68;99307.88;280080;35;5223;-82
2022/11/05 00:35:39;;;;;;;454.57;286.00;;;;;;;10.93;83.39;99306.09;277014;35;5200;-82
2022/11/05 00:35:49;;;;;;;453.87;284.97;;;;;;;10.92;83.43;99307.88;275596;35;1519;-82
2022/11/05 00:36:01;;;;;;;449.40;284.20;;;;;;;10.93;83.75;99309.56;272034;35;6525;-82
2022/11/05 00:36:11;;;;;;;449.70;285.85;;;;;;;10.94;83.51;99306.03;273704;35;7580;-82
2022/11/05 00:36:22;;;;;;;450.70;283.05;;;;;;;10.93;83.76;99309.56;273293;35;8921;-82
2022/11/05 00:36:32;;;;;;;459.03;289.57;;;;;;;10.94;83.50;99310.41;269043;36;1255;-82
2022/11/05 00:36:43;;;;;;;461.13;288.38;;;;;;;10.93;83.58;99309.56;271686;36;8936;-82
2022/11/05 00:38:27;;;;;;;437.94;240.61;;;;;;;10.97;83.50;99305.03;2501624;27;20836;-81
2022/11/05 00:38:38;;;;;;;447.48;260.77;;;;;;;10.96;83.51;99312.03;351914;28;1416;-82
2022/11/05 00:38:48;;;;;;;448.43;264.60;;;;;;;10.98;83.87;99304.97;350715;28;1273;-82
2022/11/05 00:38:59;;;;;;;447.87;262.80;;;;;;;10.97;83.55;99316.34;349551;28;1243;-82
2022/11/05 00:39:09;;;;;;;450.47;265.87;;;;;;;10.98;83.17;99301.50;346474;28;1259;-82
2022/11/05 00:39:19;;;;;;;452.40;268.17;;;;;;;10.96;83.03;99304.19;349176;28;1287;-82
2022/11/05 00:39:30;;;;;;;449.05;266.20;;;;;;;10.96;83.40;99309.44;347828;28;947;-82
2022/11/05 00:39:40;;;;;;;444.20;263.23;;;;;;;10.96;83.46;99308.56;346432;28;1243;-82
2022/11/05 00:39:51;;;;;;;440.13;258.00;;;;;;;10.95;83.29;99310.34;346466;28;1259;-82
2022/11/05 00:40:01;;;;;;;441.30;259.60;;;;;;;10.95;83.40;99302.50;348317;28;1188;-82
2022/11/05 00:40:12;;;;;;;442.73;262.90;;;;;;;10.96;83.41;99309.44;348327;28;1204;-82
2022/11/05 00:40:23;;;;;;;445.25;267.58;;;;;;;10.96;83.63;99304.19;348413;28;1579;-82
2022/11/05 00:40:33;;;;;;;448.65;271.90;;;;;;;10.96;83.51;99305.97;350357;28;1319;-82
2022/11/05 00:40:44;;;;;;;452.50;274.87;;;;;;;10.95;83.42;99306.88;351617;28;1285;-82
2022/11/05 00:40:54;;;;;;;450.55;275.05;;;;;;;10.94;83.51;99302.56;349762;28;1230;-82
2022/11/05 00:41:05;;;;;;;449.63;274.50;;;;;;;10.92;83.44;99307.03;349738;28;1160;-82
2022/11/05 00:41:15;;;;;;;450.13;272.77;;;;;;;10.92;83.26;99307.88;349859;28;1337;-82
2022/11/05 00:41:25;;;;;;;449.00;274.70;;;;;;;10.92;83.72;99310.50;349707;28;1252;-82
2022/11/05 00:41:36;;;;;;;446.13;273.90;;;;;;;10.92;83.53;99309.63;351955;28;1468;-82
2022/11/05 00:44:58;;;;;;;442.00;272.33;;;;;;;10.89;83.65;99308.00;349047;28;843;-82
2022/11/05 00:45:00;;;;;;;440.67;260.75;;;;;;;10.90;84.16;99312.34;342424;28;719;-82
2022/11/05 00:45:10;;;;;;;444.23;270.85;;;;;;;10.89;84.21;99302.78;340371;29;952;-82
2022/11/05 00:45:21;;;;;;;443.15;269.02;;;;;;;10.89;83.92;99308.00;339783;29;1226;-82
2022/11/05 00:45:31;;;;;;;445.10;272.27;;;;;;;10.88;83.97;99306.31;340519;29;1225;-82
2022/11/05 00:45:42;;;;;;;447.45;275.90;;;;;;;10.89;83.76;99307.16;338342;29;1212;-82
2022/11/05 00:45:52;;;;;;;451.10;275.73;;;;;;;10.89;83.83;99308.00;342076;28;1322;-82
2022/11/05 00:46:02;;;;;;;450.30;270.02;;;;;;;10.89;83.68;99310.63;341693;28;1265;-82
2022/11/05 00:46:13;;;;;;;454.77;268.97;;;;;;;10.88;83.40;99314.16;339528;29;1488;-82
2022/11/05 00:46:23;;;;;;;456.20;273.15;;;;;;;10.89;83.65;99310.63;341154;28;2916;-82
2022/11/05 00:46:34;;;;;;;457.33;279.67;;;;;;;10.89;83.55;99310.63;342109;28;1327;-82
2022/11/05 00:46:44;;;;;;;455.80;286.33;;;;;;;10.90;83.55;99314.09;345304;28;1707;-82
2022/11/05 00:49:28;;;;;;;452.92;283.17;;;;;;;10.89;83.58;99310.63;343325;28;3061;-82
2022/11/05 00:49:30;;;;;;;456.15;283.85;;;;;;;10.86;83.98;99302.91;324637;30;2163;-82
2022/11/05 00:49:40;;;;;;;443.60;273.27;;;;;;;10.86;84.13;99305.53;323461;30;1292;-82
2022/11/05 00:49:51;;;;;;;445.13;267.07;;;;;;;10.86;84.31;99305.53;325840;30;1322;-82
2022/11/05 00:50:01;;;;;;;447.73;273.08;;;;;;;10.85;84.15;99301.22;327058;30;1339;-82
2022/11/05 00:50:12;;;;;;;452.30;278.77;;;;;;;10.85;83.96;99306.47;328632;30;1214;-82
2022/11/05 00:50:22;;;;;;;449.60;280.50;;;;;;;10.85;84.06;99310.84;328004;30;1860;-82
2022/11/05 00:50:33;;;;;;;448.07;281.27;;;;;;;10.85;84.04;99306.47;324984;30;2430;-82
2022/11/05 00:50:43;;;;;;;448.35;278.50;;;;;;;10.85;84.09;99311.69;322962;30;1331;-82
2022/11/05 00:50:54;;;;;;;450.30;278.97;;;;;;;10.85;83.95;99308.22;324901;30;2125;-82
2022/11/05 00:51:06;;;;;;;450.08;277.70;;;;;;;10.86;83.82;99310.78;321297;30;2437;-82
2022/11/05 00:51:16;;;;;;;447.38;272.38;;;;;;;10.85;83.64;99306.47;319825;30;2612;-82
2022/11/05 00:51:27;;;;;;;447.70;277.23;;;;;;;10.87;84.02;99311.63;323987;30;1034;-82
2022/11/05 00:51:37;;;;;;;442.93;275.43;;;;;;;10.87;84.08;99309.84;320760;30;2825;-82
2022/11/05 00:52:54;;;;;;;443.40;277.43;;;;;;;10.87;83.47;99304.63;320991;30;1817;-82
2022/11/05 00:52:59;;;;;;;450.05;277.48;;;;;;;10.86;83.56;99308.16;312869;31;3176;-82
2022/11/05 00:53:09;;;;;;;446.48;277.00;;;;;;;10.85;83.81;99311.69;309187;31;3091;-82
2022/11/05 00:53:20;;;;;;;443.77;270.47;;;;;;;10.86;83.61;99318.63;307981;31;3149;-82
2022/11/05 00:53:30;;;;;;;447.40;272.45;;;;;;;10.86;83.98;99313.38;307725;32;1357;-82
2022/11/05 00:53:40;;;;;;;444.60;264.60;;;;;;;10.85;83.78;99311.69;305569;32;920;-82
2022/11/05 00:53:51;;;;;;;443.63;264.10;;;;;;;10.85;83.79;99316.09;301373;32;2498;-82
2022/11/05 00:54:02;;;;;;;442.20;265.37;;;;;;;10.85;84.03;99306.47;301333;32;2570;-82
2022/11/05 00:54:12;;;;;;;445.55;271.95;;;;;;;10.86;83.86;99307.31;300605;32;1293;-82
2022/11/05 00:54:22;;;;;;;445.97;272.80;;;;;;;10.87;83.94;99309.84;300204;32;2198;-82
2022/11/05 00:54:33;;;;;;;448.48;273.08;;;;;;;10.84;83.97;99310.00;298864;32;2812;-82
2022/11/05 00:54:43;;;;;;;448.20;269.80;;;;;;;10.84;84.25;99312.63;300169;33;1215;-82
2022/11/05 00:54:54;;;;;;;449.30;270.77;;;;;;;10.85;84.35;99309.06;297726;33;3712;-82
2022/11/05 00:55:04;;;;;;;444.07;268.53;;;;;;;10.85;84.37;99311.69;295898;33;4908;-82
2022/11/05 00:55:15;;;;;;;445.52;271.52;;;;;;;10.85;84.17;99310.84;296511;33;1380;-82
2022/11/05 00:55:28;;;;;;;445.30;273.67;;;;;;;10.84;84.24;99314.38;291353;33;4813;-82
2022/11/05 00:55:41;;;;;;;444.35;274.08;;;;;;;10.83;84.25;99313.53;293581;33;5160;-82
2022/11/05 00:55:51;;;;;;;445.90;280.15;;;;;;;10.81;84.50;99315.41;294789;33;5635;-82
2022/11/05 00:56:02;;;;;;;448.70;283.93;;;;;;;10.79;84.52;99312.00;295579;33;3532;-82
2022/11/05 00:56:12;;;;;;;448.55;278.10;;;;;;;10.80;84.21;99310.25;293378;33;1379;-82
2022/11/05 00:56:23;;;;;;;448.47;270.93;;;;;;;10.80;84.50;99316.31;291117;33;3412;-82
2022/11/05 00:56:33;;;;;;;446.50;270.77;;;;;;;10.80;84.19;99308.47;287312;34;3462;-82
2022/11/05 00:56:43;;;;;;;448.43;280.37;;;;;;;10.80;84.08;99311.09;285797;34;1418;-82
2022/11/05 00:56:54;;;;;;;448.65;280.77;;;;;;;10.80;84.25;99308.47;282646;34;4438;-82
2022/11/05 00:57:04;;;;;;;447.67;275.87;;;;;;;10.81;84.18;99310.16;283513;34;5370;-82
2022/11/05 00:57:15;;;;;;;446.08;273.85;;;;;;;10.81;84.01;99310.16;285786;34;1392;-82
2022/11/05 00:57:25;;;;;;;448.50;277.90;;;;;;;10.82;83.99;99308.41;286068;34;7819;-82
2022/11/05 00:57:35;;;;;;;448.33;277.52;;;;;;;10.83;83.88;99308.31;286211;34;6510;-82
2022/11/05 00:57:46;;;;;;;445.50;273.30;;;;;;;10.83;84.41;99307.47;282731;34;6037;-82
2022/11/05 00:57:56;;;;;;;440.03;267.37;;;;;;;10.82;83.95;99311.03;282332;35;1383;-82
2022/11/05 00:58:11;;;;;;;440.33;266.98;;;;;;;10.81;84.02;99304.94;284464;34;7955;-82
2022/11/05 00:58:22;;;;;;;444.13;270.42;;;;;;;10.82;83.95;99306.63;282625;34;4947;-82
2022/11/05 00:58:32;;;;;;;447.77;272.30;;;;;;;10.82;83.87;99306.63;280403;35;4807;-82
2022/11/05 00:58:43;;;;;;;450.70;277.53;;;;;;;10.81;84.12;99304.94;276913;35;1244;-82
2022/11/05 00:58:55;;;;;;;452.33;280.10;;;;;;;10.82;84.12;99301.41;275331;35;6172;-82
2022/11/05 00:59:05;;;;;;;445.48;274.28;;;;;;;10.81;83.89;99302.31;271418;35;6247;-82
2022/11/05 00:59:15;;;;;;;444.23;271.30;;;;;;;10.82;84.00;99308.41;269567;35;7532;-82
2022/11/05 00:59:26;;;;;;;441.73;271.63;;;;;;;10.82;83.66;99300.56;271240;36;1262;-82
2022/11/05 00:59:36;;;;;;;441.35;267.23;;;;;;;10.82;84.18;99301.41;269126;36;9929;-81
2022/11/05 00:59:47;;;;;;;443.83;268.93;;;;;;;10.82;84.04;99304.00;267189;36;11051;-81
2022/11/05 00:59:57;;;;;;;445.50;267.75;;;;;;;10.80;83.97;99300.63;265430;37;1100;-81
2022/11/05 01:02:15;;;;;;;429.71;249.90;;;;;;;10.81;83.87;99304.94;2506333;27;20253;-82
2022/11/05 01:02:25;;;;;;;435.43;261.70;;;;;;;10.80;84.14;99308.47;352780;28;1275;-82
2022/11/05 01:02:36;;;;;;;436.88;266.10;;;;;;;10.80;84.06;99310.25;349793;28;1235;-82
2022/11/05 01:02:46;;;;;;;437.17;265.57;;;;;;;10.77;84.17;99306.00;349461;28;1310;-82
2022/11/05 01:03:01;;;;;;;440.23;262.92;;;;;;;10.78;84.29;99301.63;351225;28;1326;-82
2022/11/05 01:03:13;;;;;;;441.90;261.70;;;;;;;10.79;84.36;99306.78;352381;28;1352;-82
2022/11/05 01:03:25;;;;;;;444.23;264.15;;;;;;;10.80;84.53;99312.84;348439;28;1383;-82
2022/11/05 01:03:36;;;;;;;445.60;264.45;;;;;;;10.83;84.38;99307.47;351306;28;1309;-82
2022/11/05 01:03:47;;;;;;;443.85;261.95;;;;;;;10.81;84.39;99309.31;348416;28;1334;-82
2022/11/05 01:03:57;;;;;;;444.93;267.13;;;;;;;10.81;84.31;99304.94;346494;28;1011;-82
2022/11/05 01:04:07;;;;;;;446.58;267.23;;;;;;;10.81;84.19;99310.16;345752;28;1331;-82
2022/11/05 01:04:18;;;;;;;446.37;268.87;;;;;;;10.80;84.20;99311.09;347777;28;1300;-82
2022/11/05 01:04:28;;;;;;;441.70;261.15;;;;;;;10.81;84.49;99304.09;349065;28;1241;-81
2022/11/05 01:04:39;;;;;;;437.90;259.63;;;;;;;10.79;84.21;99304.16;348577;28;3399;-81
2022/11/05 01:04:49;;;;;;;441.83;263.97;;;;;;;10.78;83.98;99302.47;346979;28;1691;-81
2022/11/05 01:05:00;;;;;;;447.43;272.83;;;;;;;10.79;84.42;99304.16;345324;28;1461;-81
2022/11/05 01:05:10;;;;;;;450.20;273.50;;;;;;;10.80;84.34;99299.78;347364;28;1809;-81
2022/11/05 01:05:20;;;;;;;448.37;269.33;;;;;;;10.81;84.39;99304.09;347639;28;1560;-81
2022/11/05 01:05:31;;;;;;;444.08;262.48;;;;;;;10.81;84.40;99301.47;346828;28;1371;-81
2022/11/05 01:05:49;;;;;;;440.92;258.90;;;;;;;10.81;84.16;99298.84;349317;28;1259;-81
2022/11/05 01:06:13;;;;;;;439.92;261.77;;;;;;;10.83;84.22;99297.81;346998;28;1115;-81
2022/11/05 01:06:23;;;;;;;437.25;263.67;;;;;;;10.84;84.40;99296.91;348508;28;997;-81
2022/11/05 01:06:34;;;;;;;441.57;269.00;;;;;;;10.85;84.28;99293.38;349148;28;1274;-81
2022/11/05 01:06:44;;;;;;;441.95;267.02;;;;;;;10.85;84.05;99303.84;346492;28;1318;-81
2022/11/05 01:06:55;;;;;;;443.13;271.20;;;;;;;10.86;84.16;99300.31;345526;28;1338;-81
2022/11/05 01:07:05;;;;;;;439.77;269.27;;;;;;;10.85;84.29;99298.59;345329;28;1359;-81
2022/11/05 01:07:15;;;;;;;440.23;270.40;;;;;;;10.84;84.09;99301.28;345127;28;1189;-83
2022/11/05 01:07:26;;;;;;;439.33;267.07;;;;;;;10.82;83.85;99296.16;343928;28;1377;-82
2022/11/05 01:07:36;;;;;;;442.70;270.95;;;;;;;10.82;84.04;99301.41;343715;28;1781;-82
2022/11/05 01:07:47;;;;;;;448.87;272.63;;;;;;;10.83;83.75;99300.44;343809;28;3596;-82
2022/11/05 01:07:58;;;;;;;449.50;272.08;;;;;;;10.85;83.78;99300.38;342113;28;3012;-82
2022/11/05 01:08:10;;;;;;;453.98;274.77;;;;;;;10.83;83.65;99297.00;344995;28;1884;-82
2022/11/05 01:08:21;;;;;;;443.10;267.42;;;;;;;10.81;83.65;99299.69;344175;28;3072;-82
2022/11/05 01:08:32;;;;;;;437.05;258.38;;;;;;;10.82;83.80;99301.41;342746;28;1398;-82
2022/11/05 01:08:43;;;;;;;434.33;257.07;;;;;;;10.81;83.89;99296.22;341312;28;1189;-82
2022/11/05 01:08:54;;;;;;;436.67;261.60;;;;;;;10.83;84.22;99297.81;344493;28;1278;-83
2022/11/05 01:09:05;;;;;;;438.35;268.88;;;;;;;10.82;84.24;99300.56;342499;28;1268;-82
2022/11/05 01:09:15;;;;;;;444.27;272.03;;;;;;;10.85;84.14;99300.38;339777;29;1289;-82
2022/11/05 01:09:25;;;;;;;446.00;269.35;;;;;;;10.83;84.07;99292.59;342071;28;1393;-82
2022/11/05 01:09:36;;;;;;;445.10;269.93;;;;;;;10.84;83.98;99294.28;346441;28;1216;-82
2022/11/05 01:09:46;;;;;;;442.40;268.00;;;;;;;10.82;83.83;99300.56;341210;29;1199;-82
2022/11/05 01:09:56;;;;;;;442.80;266.73;;;;;;;10.83;83.92;99294.41;339906;29;1292;-82
2022/11/05 01:10:07;;;;;;;443.50;267.37;;;;;;;10.84;84.07;99293.44;343609;28;1579;-82
2022/11/05 01:10:18;;;;;;;442.13;265.58;;;;;;;10.84;83.84;99299.53;341641;28;1236;-82
2022/11/05 01:10:29;;;;;;;443.60;267.80;;;;;;;10.84;83.94;99293.44;342768;28;1578;-82
2022/11/05 01:10:43;;;;;;;444.63;263.17;;;;;;;10.83;83.88;99295.22;343559;28;1419;-82
2022/11/05 01:10:55;;;;;;;443.25;260.40;;;;;;;10.84;83.79;99296.91;342561;28;1654;-82
2022/11/05 01:11:09;;;;;;;441.48;256.73;;;;;;;10.84;83.91;99299.53;345556;28;1441;-81
2022/11/05 01:11:32;;;;;;;441.35;258.80;;;;;;;10.84;83.81;99293.44;344584;28;1340;-82
2022/11/05 01:11:44;;;;;;;436.92;257.25;;;;;;;10.83;83.48;99295.22;343895;28;1331;-82
2022/11/05 01:11:54;;;;;;;434.73;260.60;;;;;;;10.81;83.86;99294.47;342273;28;1437;-82
2022/11/05 01:12:05;;;;;;;439.73;264.45;;;;;;;10.81;83.75;99293.63;340763;28;1465;-82
2022/11/05 01:12:15;;;;;;;445.57;263.00;;;;;;;10.81;83.96;99294.47;338466;29;1303;-83
2022/11/05 01:12:25;;;;;;;445.75;261.00;;;;;;;10.81;83.79;99294.47;337687;29;1630;-83
2022/11/05 01:12:36;;;;;;;442.67;267.27;;;;;;;10.81;83.97;99291.84;336025;29;1810;-82
2022/11/05 01:12:46;;;;;;;438.38;269.42;;;;;;;10.80;83.92;99292.75;336177;29;1288;-82
2022/11/05 01:12:57;;;;;;;439.73;270.27;;;;;;;10.82;83.78;99298.78;337140;29;1974;-82
2022/11/05 01:13:08;;;;;;;440.65;263.40;;;;;;;10.82;83.90;99301.41;335737;29;2198;-82
2022/11/05 01:13:23;;;;;;;441.75;261.25;;;;;;;10.83;83.70;99297.81;333954;29;1377;-82
2022/11/05 01:13:33;;;;;;;435.70;257.40;;;;;;;10.80;84.03;99298.00;335199;29;918;-82
2022/11/05 01:13:44;;;;;;;434.75;257.65;;;;;;;10.81;84.41;99293.63;337893;29;1508;-82
2022/11/05 01:13:54;;;;;;;436.63;262.50;;;;;;;10.81;84.23;99299.69;337128;29;1267;-82
2022/11/05 01:14:07;;;;;;;437.10;263.17;;;;;;;10.79;84.54;99296.31;332319;29;2845;-82
2022/11/05 01:14:18;;;;;;;437.88;259.25;;;;;;;10.82;84.59;99296.16;332803;29;3061;-82
2022/11/05 01:14:28;;;;;;;441.63;262.90;;;;;;;10.80;84.67;99303.25;334866;29;2180;-82
2022/11/05 01:14:38;;;;;;;442.10;265.37;;;;;;;10.81;84.56;99298.84;329596;29;2123;-82
2022/11/05 01:14:49;;;;;;;442.90;264.73;;;;;;;10.81;84.54;99302.31;326817;30;3172;-82
2022/11/05 01:14:59;;;;;;;445.97;265.63;;;;;;;10.78;84.21;99294.59;318997;30;1214;-82
2022/11/05 01:15:10;;;;;;;445.92;268.20;;;;;;;10.80;84.39;99303.25;321487;30;2528;-82
2022/11/05 01:15:20;;;;;;;443.77;269.07;;;;;;;10.80;84.42;99294.53;320929;30;2769;-82
2022/11/05 01:15:30;;;;;;;437.98;265.08;;;;;;;10.80;84.63;99297.16;318111;31;1329;-82
2022/11/05 01:15:41;;;;;;;436.37;261.30;;;;;;;10.79;84.62;99296.31;319960;30;1843;-82
2022/11/05 01:15:51;;;;;;;434.85;261.60;;;;;;;10.80;84.39;99292.75;320404;30;1427;-82
2022/11/05 01:16:07;;;;;;;437.33;270.43;;;;;;;10.81;84.23;99289.22;317416;31;1330;-82
2022/11/05 01:16:17;;;;;;;436.85;270.63;;;;;;;10.80;84.18;99295.38;315784;31;1488;-82
2022/11/05 01:16:28;;;;;;;438.87;274.93;;;;;;;10.79;84.00;99291.06;316848;31;2584;-82
2022/11/05 01:16:38;;;;;;;442.23;270.50;;;;;;;10.77;84.09;99292.06;317635;30;2945;-82
2022/11/05 01:16:49;;;;;;;447.17;271.30;;;;;;;10.79;84.06;99296.31;317760;31;1319;-82
2022/11/05 01:16:59;;;;;;;449.30;268.10;;;;;;;10.79;84.07;99296.31;315729;31;1435;-82
2022/11/05 01:17:09;;;;;;;447.40;275.77;;;;;;;10.80;83.96;99292.75;314130;31;3055;-82
2022/11/05 01:17:20;;;;;;;442.25;275.50;;;;;;;10.79;84.18;99288.44;311480;31;3591;-82
2022/11/05 01:17:30;;;;;;;440.03;273.37;;;;;;;10.81;84.53;99294.47;310017;31;816;-82
2022/11/05 01:17:41;;;;;;;438.90;265.40;;;;;;;10.80;84.57;99292.75;310171;31;3104;-82
2022/11/05 01:17:51;;;;;;;441.67;265.83;;;;;;;10.80;84.53;99298.00;309731;31;2320;-82
2022/11/05 01:18:02;;;;;;;442.35;265.80;;;;;;;10.81;84.30;99293.63;308770;32;1372;-82
2022/11/05 01:18:12;;;;;;;442.33;266.60;;;;;;;10.82;84.25;99290.06;310360;31;2443;-82
2022/11/05 01:18:23;;;;;;;438.63;264.65;;;;;;;10.80;84.20;99287.53;309071;31;3205;-82
2022/11/05 01:18:34;;;;;;;434.53;263.13;;;;;;;10.81;84.10;99289.22;306091;32;1235;-82
2022/11/05 01:18:45;;;;;;;436.20;261.70;;;;;;;10.80;84.28;99292.75;303909;32;1417;-82
2022/11/05 01:18:55;;;;;;;439.48;254.48;;;;;;;10.82;84.24;99295.31;309139;31;4276;-82
2022/11/05 01:19:07;;;;;;;442.80;255.73;;;;;;;10.81;84.20;99286.63;307800;31;4513;-82
2022/11/05 01:19:17;;;;;;;442.63;258.85;;;;;;;10.82;84.30;99290.94;301428;32;1305;-82